Flight Track Log - Related Links

Times and Time Zones

All times are in EDT time to prevent confusion due to time zone crossing. See the DAL3970 flight status page for this flight to view local times or setup timezone preferences in your user account.

Time Position Orientation Groundspeed Altitude Reporting Facility
EDT Latitude Longitude Course Direction KTS MPH feet Rate Location/Type
Mon 08:24:20 AM 44.7433 -89.6261 102° East 199 229 3,000  Level Minneapolis Center
Mon 08:25:22 AM 44.7456 -89.5361 88° East 236 272 5,200 2,244 Climbing Minneapolis Center
Mon 08:26:00 AM 44.7179 -89.2916 100° East  Level FlightAware Approximate
Mon 08:26:23 AM 44.7533 -89.4139 85° East 301 346 7,600  Level Minneapolis Center
Mon 08:27:00 AM 44.7021 -89.1658 100° East  Level FlightAware Approximate
Mon 08:27:25 AM 44.7356 -89.2911 101° East 308 354 10,500  Level Minneapolis Center
Mon 08:28:00 AM 44.6863 -89.0401 100° East  Level FlightAware Approximate
Mon 08:28:26 AM 44.7158 -89.1683 103° East 335 386 11,000  Level Minneapolis Center
Mon 08:29:00 AM 44.6675 -88.9152 102° East  Level FlightAware Approximate
Mon 08:29:27 AM 44.6919 -89.0214 103° East 399 459 11,000  Level Minneapolis Center
Mon 08:30:29 AM 44.6672 -88.8681 103° East 403 464 12,000 1,220 Climbing Minneapolis Center
Mon 08:31:30 AM 44.6383 -88.6914 103° East 398 458 13,500 1,756 Climbing Minneapolis Center
Mon 08:32:32 AM 44.6125 -88.5389 103° East 399 459 15,600 1,659 Climbing Minneapolis Center
Mon 08:33:33 AM 44.5922 -88.4128 103° East 399 459 16,900 1,328 Climbing Minneapolis Center
Mon 08:34:34 AM 44.5664 -88.2578 103° East 405 466 18,300 1,366 Climbing Minneapolis Center
Mon 08:35:36 AM 44.5044 -88.0956 118° Southeast 406 467 19,700 1,258 Climbing Minneapolis Center
Mon 08:36:38 AM 44.4389 -87.9686 126° Southeast 401 461 20,900 634 Climbing Minneapolis Center
Mon 08:37:39 AM 44.3711 -87.8372 126° Southeast 407 468 21,000 49 Climbing Minneapolis Center
Mon 08:38:40 AM 44.2978 -87.6947 126° Southeast 435 501 21,000  Level Minneapolis Center
Mon 08:39:42 AM 44.2214 -87.5494 126° Southeast 455 524 21,000  Level Minneapolis Center
Mon 08:40:43 AM 44.1364 -87.3842 126° Southeast 449 517 21,000  Level Minneapolis Center
Mon 08:41:45 AM 44.0619 -87.2444 127° Southeast 447 514 21,000  Level Minneapolis Center
Mon 08:42:46 AM 43.9994 -87.1261 126° Southeast 449 517 21,000  Level Minneapolis Center
Mon 08:43:48 AM 43.9083 -86.9564 127° Southeast 455 524 21,000  Level Minneapolis Center
Mon 08:44:49 AM 43.8339 -86.8131 126° Southeast 458 527 21,000  Level Minneapolis Center
Mon 08:45:51 AM 43.7611 -86.6703 125° Southeast 456 525 21,000  Level Minneapolis Center
Mon 08:46:52 AM 43.7069 -86.5089 115° Southeast 462 532 21,000  Level Minneapolis Center
Mon 08:47:54 AM 43.6508 -86.3492 116° Southeast 463 533 21,000  Level Minneapolis Center
Mon 08:48:32 AM 43.6169 -86.2539 116° Southeast 462 532 21,000  Level Chicago Center
Mon 08:49:34 AM 43.5608 -86.0950 116° Southeast 459 528 21,000  Level Chicago Center
Mon 08:50:36 AM 43.5047 -85.9344 116° Southeast 463 533 21,000  Level Chicago Center
Mon 08:50:58 AM 43.4814 -85.8700 117° Southeast 461 531 21,000  Level Minneapolis Center
Mon 08:52:12 AM 43.4125 -85.6800 116° Southeast 459 528 21,000  Level Minneapolis Center
Mon 08:53:14 AM 43.3561 -85.5211 116° Southeast 460 529 21,000  Level Minneapolis Center
Mon 08:53:42 AM 43.3219 -85.4269 116° Southeast 459 528 21,000  Level Chicago Center
Mon 08:54:43 AM 43.2647 -85.2700 117° Southeast 458 527 21,000  Level Chicago Center
Mon 08:55:45 AM 43.2264 -85.1025 107° East 456 525 21,000  Level Cleveland Center
Mon 08:56:45 AM 43.1931 -84.9350 105° East 456 525 21,000  Level Cleveland Center
Mon 08:57:45 AM 43.1617 -84.7675 104° East 456 525 21,000  Level Cleveland Center
Mon 08:58:45 AM 43.1283 -84.5972 105° East 456 525 21,000  Level Cleveland Center
Mon 08:59:45 AM 43.1006 -84.4306 103° East 456 525 21,000  Level Cleveland Center
Mon 09:00:45 AM 43.0642 -84.2636 107° East 456 525 21,000 -1,200 Level Cleveland Center
Mon 09:01:45 AM 43.0339 -84.0997 104° East 456 525 18,600 -2,500 Descending Cleveland Center
Mon 09:02:45 AM 43.0031 -83.9475 105° East 436 502 16,000 -2,805 Descending Cleveland Center
Mon 09:03:02 AM 42.9922 -83.8900 104° East 412 474 15,000 -2,500 Descending Cleveland Center
Mon 09:03:45 AM 42.9569 -83.8089 121° Southeast 400 460 13,500 -2,459 Descending Cleveland Center
Mon 09:04:03 AM 42.9181 -83.7869 158° South 392 451 12,500 -1,500 Descending Cleveland Center
Mon 09:04:45 AM 42.8606 -83.7500 155° Southeast 358 412 12,000 -492 Descending Cleveland Center
Mon 09:05:04 AM 42.8297 -83.7342 159° South 316 364 12,000 -200 Level Cleveland Center
Mon 09:05:45 AM 42.7806 -83.7036 155° Southeast 326 375 11,800 -885 Descending Cleveland Center
Mon 09:06:05 AM 42.7519 -83.6878 158° South 314 361 11,100 -1,900 Descending Cleveland Center
Mon 09:06:45 AM 42.6944 -83.6539 157° South 313 360 9,900 -1,672 Descending Cleveland Center
Mon 09:07:06 AM 42.6656 -83.6383 158° South 299 344 9,400 -1,200 Descending Cleveland Center
Mon 09:07:45 AM 42.6289 -83.6114 152° Southeast 308 354 8,700 -1,309 Descending Cleveland Center
Mon 09:08:01 AM 42.6108 -83.5850 133° Southeast 302 348 8,200 -1,200 Descending Cleveland Center
Mon 09:08:45 AM 42.5789 -83.5272 127° Southeast 295 339 7,500 -1,091 Descending Cleveland Center
Mon 09:09:07 AM 42.5778 -83.4847 92° East 241 277 7,000 -1,200 Descending Cleveland Center
Mon 09:09:45 AM 42.5728 -83.4339 98° East 249 287 6,300 -1,091 Descending Cleveland Center
Mon 09:10:02 AM 42.5736 -83.4000 88° East 231 266 6,000 -300 Descending Cleveland Center
Mon 09:10:45 AM 42.5686 -83.3461 97° East 230 265 6,000 -529 Level Cleveland Center
Mon 09:11:10 AM 42.5678 -83.3039 92° East 239 275 5,400 -1,300 Descending Cleveland Center
Mon 09:11:45 AM 42.5647 -83.2558 95° East 230 265 4,700 -1,300 Descending Cleveland Center
Mon 09:12:10 AM 42.5636 -83.2106 92° East 226 260 4,100 -700 Descending Cleveland Center
Mon 09:12:45 AM 42.5539 -83.1792 113° Southeast 230 265 4,000 -109 Descending Cleveland Center
Mon 09:13:05 AM 42.5289 -83.1781 178° South 199 229 4,000  Level Cleveland Center
Mon 09:14:12 AM 42.4703 -83.1869 186° South 175 201 4,000  Level Cleveland Center
Mon 09:15:13 AM 42.4300 -83.2192 211° Southwest 173 199 4,000  Level Cleveland Center
Mon 09:16:14 AM 42.3856 -83.2511 208° Southwest 175 201 4,000  Level Cleveland Center

Login

Don't have an account? Register now (free) for customized features, flight alerts, and more!